sensor_id;sensor_type;location;lat;lon;timestamp;pressure;altitude;pressure_sealevel;temperature;humidity
71643;BME280;59438;45.014;39.006;2023-04-29T00:01:41;100732.81;;;13.04;74.26
71643;BME280;59438;45.014;39.006;2023-04-29T00:04:08;100734.03;;;12.97;74.74
71643;BME280;59438;45.014;39.006;2023-04-29T00:06:35;100745.72;;;12.91;74.51
71643;BME280;59438;45.014;39.006;2023-04-29T00:09:01;100738.22;;;12.82;74.69
71643;BME280;59438;45.014;39.006;2023-04-29T00:11:27;100737.59;;;12.77;74.41
71643;BME280;59438;45.014;39.006;2023-04-29T00:13:54;100736.09;;;12.71;74.61
71643;BME280;59438;45.014;39.006;2023-04-29T00:16:20;100750.31;;;12.67;74.87
71643;BME280;59438;45.014;39.006;2023-04-29T00:18:46;100746.97;;;12.63;74.97
71643;BME280;59438;45.014;39.006;2023-04-29T00:21:15;100753.09;;;12.64;75.55
71643;BME280;59438;45.014;39.006;2023-04-29T00:23:41;100746.25;;;12.60;74.96
71643;BME280;59438;45.014;39.006;2023-04-29T00:26:07;100758.72;;;12.56;74.78
71643;BME280;59438;45.014;39.006;2023-04-29T00:28:34;100743.19;;;12.50;74.59
71643;BME280;59438;45.014;39.006;2023-04-29T00:31:00;100744.16;;;12.47;74.93
71643;BME280;59438;45.014;39.006;2023-04-29T00:33:26;100731.19;;;12.43;74.90
71643;BME280;59438;45.014;39.006;2023-04-29T00:35:53;100733.19;;;12.38;74.45
71643;BME280;59438;45.014;39.006;2023-04-29T00:38:20;100725.47;;;12.33;74.87
71643;BME280;59438;45.014;39.006;2023-04-29T00:40:47;100723.84;;;12.30;75.04
71643;BME280;59438;45.014;39.006;2023-04-29T00:43:13;100723.03;;;12.28;74.62
71643;BME280;59438;45.014;39.006;2023-04-29T00:45:40;100731.78;;;12.29;74.67
71643;BME280;59438;45.014;39.006;2023-04-29T00:48:06;100729.94;;;12.31;75.06
71643;BME280;59438;45.014;39.006;2023-04-29T00:50:32;100723.09;;;12.27;74.80
71643;BME280;59438;45.014;39.006;2023-04-29T00:52:59;100728.03;;;12.35;74.59
71643;BME280;59438;45.014;39.006;2023-04-29T00:55:28;100735.81;;;12.38;75.12
71643;BME280;59438;45.014;39.006;2023-04-29T00:57:55;100747.94;;;12.42;74.77
71643;BME280;59438;45.014;39.006;2023-04-29T01:00:22;100731.47;;;12.37;74.65
71643;BME280;59438;45.014;39.006;2023-04-29T01:02:49;100745.16;;;12.45;74.92
71643;BME280;59438;45.014;39.006;2023-04-29T01:05:16;100741.59;;;12.46;74.59
71643;BME280;59438;45.014;39.006;2023-04-29T01:07:47;100736.47;;;12.43;75.03
71643;BME280;59438;45.014;39.006;2023-04-29T01:10:23;100748.47;;;12.50;75.32
71643;BME280;59438;45.014;39.006;2023-04-29T01:12:57;100750.16;;;12.51;75.32
71643;BME280;59438;45.014;39.006;2023-04-29T01:15:31;100745.94;;;12.47;75.68
71643;BME280;59438;45.014;39.006;2023-04-29T01:17:59;100752.78;;;12.51;75.33
71643;BME280;59438;45.014;39.006;2023-04-29T01:20:30;100748.47;;;12.50;75.00
71643;BME280;59438;45.014;39.006;2023-04-29T01:22:57;100745.66;;;12.53;74.62
71643;BME280;59438;45.014;39.006;2023-04-29T01:25:24;100743.03;;;12.53;75.23
71643;BME280;59438;45.014;39.006;2023-04-29T01:27:56;100738.69;;;12.52;75.21
71643;BME280;59438;45.014;39.006;2023-04-29T01:30:31;100740.47;;;12.52;75.10
71643;BME280;59438;45.014;39.006;2023-04-29T01:33:07;100726.59;;;12.48;75.32
71643;BME280;59438;45.014;39.006;2023-04-29T01:35:44;100701.97;;;12.28;75.45
71643;BME280;59438;45.014;39.006;2023-04-29T01:38:22;100734.75;;;12.42;74.84
71643;BME280;59438;45.014;39.006;2023-04-29T01:40:59;100741.88;;;12.40;75.75
71643;BME280;59438;45.014;39.006;2023-04-29T01:43:31;100749.00;;;12.38;74.55
71643;BME280;59438;45.014;39.006;2023-04-29T01:45:59;100751.69;;;12.36;74.55
71643;BME280;59438;45.014;39.006;2023-04-29T01:48:28;100745.69;;;12.33;74.71
71643;BME280;59438;45.014;39.006;2023-04-29T01:50:55;100748.31;;;12.33;74.52
71643;BME280;59438;45.014;39.006;2023-04-29T01:53:21;100741.34;;;12.32;74.84
71643;BME280;59438;45.014;39.006;2023-04-29T01:55:47;100713.88;;;12.17;74.58
71643;BME280;59438;45.014;39.006;2023-04-29T01:58:15;100721.66;;;12.20;74.98
71643;BME280;59438;45.014;39.006;2023-04-29T02:00:42;100706.09;;;12.15;74.94
71643;BME280;59438;45.014;39.006;2023-04-29T02:03:08;100720.13;;;12.35;74.77
71643;BME280;59438;45.014;39.006;2023-04-29T02:05:34;100714.03;;;12.34;74.68
71643;BME280;59438;45.014;39.006;2023-04-29T02:08:01;100723.50;;;12.38;74.58
71643;BME280;59438;45.014;39.006;2023-04-29T02:10:28;100732.19;;;12.40;74.66
71643;BME280;59438;45.014;39.006;2023-04-29T02:12:54;100725.06;;;12.42;74.66
71643;BME280;59438;45.014;39.006;2023-04-29T02:15:22;100724.91;;;12.45;74.65
71643;BME280;59438;45.014;39.006;2023-04-29T02:17:51;100726.59;;;12.48;74.32
71643;BME280;59438;45.014;39.006;2023-04-29T02:20:17;100739.75;;;12.48;74.21
71643;BME280;59438;45.014;39.006;2023-04-29T02:22:44;100746.72;;;12.49;74.41
71643;BME280;59438;45.014;39.006;2023-04-29T02:25:10;100762.53;;;12.49;74.34
71643;BME280;59438;45.014;39.006;2023-04-29T02:27:37;100761.69;;;12.48;74.26
71643;BME280;59438;45.014;39.006;2023-04-29T02:30:04;100756.41;;;12.48;74.69
71643;BME280;59438;45.014;39.006;2023-04-29T02:32:32;100762.53;;;12.49;74.67
71643;BME280;59438;45.014;39.006;2023-04-29T02:34:58;100761.63;;;12.50;74.55
71643;BME280;59438;45.014;39.006;2023-04-29T02:37:25;100752.72;;;12.53;74.24
71643;BME280;59438;45.014;39.006;2023-04-29T02:39:51;100750.88;;;12.55;74.51
71643;BME280;59438;45.014;39.006;2023-04-29T02:42:17;100742.97;;;12.55;74.80
71643;BME280;59438;45.014;39.006;2023-04-29T02:44:44;100742.81;;;12.58;74.42
71643;BME280;59438;45.014;39.006;2023-04-29T02:47:10;100731.38;;;12.59;74.34
71643;BME280;59438;45.014;39.006;2023-04-29T02:49:38;100724.25;;;12.61;74.68
71643;BME280;59438;45.014;39.006;2023-04-29T02:52:04;100733.78;;;12.63;74.11
71643;BME280;59438;45.014;39.006;2023-04-29T02:54:31;100744.34;;;12.63;74.14
71643;BME280;59438;45.014;39.006;2023-04-29T02:56:57;100743.41;;;12.64;74.54
71643;BME280;59438;45.014;39.006;2023-04-29T02:59:23;100746.06;;;12.64;74.27
71643;BME280;59438;45.014;39.006;2023-04-29T03:01:50;100745.97;;;12.66;74.17
71643;BME280;59438;45.014;39.006;2023-04-29T03:04:16;100740.78;;;12.64;74.08
71643;BME280;59438;45.014;39.006;2023-04-29T03:06:44;100746.84;;;12.66;74.56
71643;BME280;59438;45.014;39.006;2023-04-29T03:09:10;100751.19;;;12.67;74.46
71643;BME280;59438;45.014;39.006;2023-04-29T03:11:37;100744.13;;;12.68;74.15
71643;BME280;59438;45.014;39.006;2023-04-29T03:14:03;100749.38;;;12.68;74.38
71643;BME280;59438;45.014;39.006;2023-04-29T03:16:30;100750.19;;;12.70;74.21
71643;BME280;59438;45.014;39.006;2023-04-29T03:18:56;100763.34;;;12.70;74.01
71643;BME280;59438;45.014;39.006;2023-04-29T03:21:22;100753.88;;;12.66;73.98
71643;BME280;59438;45.014;39.006;2023-04-29T03:23:50;100763.28;;;12.72;74.82
71643;BME280;59438;45.014;39.006;2023-04-29T03:26:17;100771.06;;;12.75;74.72
71643;BME280;59438;45.014;39.006;2023-04-29T03:28:43;100768.34;;;12.76;74.44
71643;BME280;59438;45.014;39.006;2023-04-29T03:31:09;100767.28;;;12.80;74.61
71643;BME280;59438;45.014;39.006;2023-04-29T03:33:36;100764.66;;;12.80;74.65
71643;BME280;59438;45.014;39.006;2023-04-29T03:36:02;100763.69;;;12.83;74.41
71643;BME280;59438;45.014;39.006;2023-04-29T03:38:28;100760.09;;;12.84;74.20
71643;BME280;59438;45.014;39.006;2023-04-29T03:40:56;100756.56;;;12.85;74.25
71643;BME280;59438;45.014;39.006;2023-04-29T03:43:22;100761.59;;;12.89;74.11
71643;BME280;59438;45.014;39.006;2023-04-29T03:45:49;100754.47;;;12.92;73.85
71643;BME280;59438;45.014;39.006;2023-04-29T03:48:15;100768.38;;;12.95;73.79
71643;BME280;59438;45.014;39.006;2023-04-29T03:50:42;100769.19;;;12.97;73.80
71643;BME280;59438;45.014;39.006;2023-04-29T03:53:08;100766.38;;;13.00;73.57
71643;BME280;59438;45.014;39.006;2023-04-29T03:55:35;100781.13;;;13.04;73.51
71643;BME280;59438;45.014;39.006;2023-04-29T03:58:02;100780.22;;;13.05;73.56
71643;BME280;59438;45.014;39.006;2023-04-29T04:00:29;100782.59;;;13.12;73.74
71643;BME280;59438;45.014;39.006;2023-04-29T04:02:56;100774.34;;;13.18;73.44
71643;BME280;59438;45.014;39.006;2023-04-29T04:05:22;100785.56;;;13.23;73.26
71643;BME280;59438;45.014;39.006;2023-04-29T04:07:48;100787.94;;;13.29;73.30
71643;BME280;59438;45.014;39.006;2023-04-29T04:10:15;100770.19;;;13.33;73.17
71643;BME280;59438;45.014;39.006;2023-04-29T04:12:41;100769.25;;;13.34;72.92
71643;BME280;59438;45.014;39.006;2023-04-29T04:15:09;100776.50;;;13.28;72.58
71643;BME280;59438;45.014;39.006;2023-04-29T04:17:35;100784.16;;;13.35;72.68
71643;BME280;59438;45.014;39.006;2023-04-29T04:20:02;100767.16;;;13.21;72.39
71643;BME280;59438;45.014;39.006;2023-04-29T04:22:29;100772.91;;;13.31;72.41
71643;BME280;59438;45.014;39.006;2023-04-29T04:24:55;100779.75;;;13.35;72.56
71643;BME280;59438;45.014;39.006;2023-04-29T04:27:22;100773.44;;;13.38;72.27
71643;BME280;59438;45.014;39.006;2023-04-29T04:29:52;100774.75;;;13.29;72.26
71643;BME280;59438;45.014;39.006;2023-04-29T04:32:20;100785.00;;;13.35;72.17
71643;BME280;59438;45.014;39.006;2023-04-29T04:34:47;100783.28;;;13.34;72.14
71643;BME280;59438;45.014;39.006;2023-04-29T04:37:13;100778.88;;;13.35;72.25
71643;BME280;59438;45.014;39.006;2023-04-29T04:39:39;100780.47;;;13.39;72.43
71643;BME280;59438;45.014;39.006;2023-04-29T04:42:06;100777.59;;;13.43;72.29
71643;BME280;59438;45.014;39.006;2023-04-29T04:44:32;100766.88;;;13.46;72.05
71643;BME280;59438;45.014;39.006;2023-04-29T04:46:58;100768.06;;;13.58;72.66
71643;BME280;59438;45.014;39.006;2023-04-29T04:49:26;100764.91;;;13.69;72.58
71643;BME280;59438;45.014;39.006;2023-04-29T04:51:53;100769.44;;;13.84;71.89
71643;BME280;59438;45.014;39.006;2023-04-29T04:54:19;100760.75;;;14.00;71.31
71643;BME280;59438;45.014;39.006;2023-04-29T04:56:45;100776.44;;;14.20;71.46
71643;BME280;59438;45.014;39.006;2023-04-29T04:59:12;100787.84;;;14.38;70.91
71643;BME280;59438;45.014;39.006;2023-04-29T05:01:38;100796.06;;;14.49;70.26
71643;BME280;59438;45.014;39.006;2023-04-29T05:04:05;100798.28;;;14.59;69.50
71643;BME280;59438;45.014;39.006;2023-04-29T05:06:32;100803.25;;;14.65;69.49
71643;BME280;59438;45.014;39.006;2023-04-29T05:08:59;100793.13;;;14.73;69.56
71643;BME280;59438;45.014;39.006;2023-04-29T05:11:25;100786.47;;;14.82;69.50
71643;BME280;59438;45.014;39.006;2023-04-29T05:13:51;100789.56;;;14.90;68.77
71643;BME280;59438;45.014;39.006;2023-04-29T05:16:18;100785.13;;;14.90;68.31
71643;BME280;59438;45.014;39.006;2023-04-29T05:18:44;100783.19;;;14.94;68.35
71643;BME280;59438;45.014;39.006;2023-04-29T05:21:10;100790.44;;;15.06;68.39
71643;BME280;59438;45.014;39.006;2023-04-29T05:23:38;100796.47;;;15.26;68.18
71643;BME280;59438;45.014;39.006;2023-04-29T05:26:04;100783.66;;;15.34;68.09
71643;BME280;59438;45.014;39.006;2023-04-29T05:28:31;100800.88;;;15.41;67.50
71643;BME280;59438;45.014;39.006;2023-04-29T05:30:57;100808.69;;;15.44;67.97
71643;BME280;59438;45.014;39.006;2023-04-29T05:33:24;100793.38;;;15.34;67.32
71643;BME280;59438;45.014;39.006;2023-04-29T05:35:50;100805.25;;;15.42;67.54
71643;BME280;59438;45.014;39.006;2023-04-29T05:38:17;100792.38;;;15.36;67.45
71643;BME280;59438;45.014;39.006;2023-04-29T05:40:44;100795.16;;;15.33;67.04
71643;BME280;59438;45.014;39.006;2023-04-29T05:43:11;100798.00;;;15.30;67.35
71643;BME280;59438;45.014;39.006;2023-04-29T05:45:37;100782.97;;;15.30;67.15
71643;BME280;59438;45.014;39.006;2023-04-29T05:48:04;100779.38;;;15.31;67.41
71643;BME280;59438;45.014;39.006;2023-04-29T05:50:30;100772.13;;;15.35;67.42
71643;BME280;59438;45.014;39.006;2023-04-29T05:52:57;100781.59;;;15.39;67.48
71643;BME280;59438;45.014;39.006;2023-04-29T05:55:23;100792.88;;;15.43;67.19
71643;BME280;59438;45.014;39.006;2023-04-29T05:57:51;100783.97;;;15.44;66.94
71643;BME280;59438;45.014;39.006;2023-04-29T06:00:17;100785.78;;;15.43;66.77
71643;BME280;59438;45.014;39.006;2023-04-29T06:02:44;100785.09;;;15.40;67.33
71643;BME280;59438;45.014;39.006;2023-04-29T06:05:10;100778.25;;;15.36;67.13
71643;BME280;59438;45.014;39.006;2023-04-29T06:07:37;100778.53;;;15.31;66.51
71643;BME280;59438;45.014;39.006;2023-04-29T06:10:04;100781.50;;;15.25;67.06
71643;BME280;59438;45.014;39.006;2023-04-29T06:12:31;100800.28;;;15.20;66.54
71643;BME280;59438;45.014;39.006;2023-04-29T06:14:59;100804.97;;;15.15;66.27
71643;BME280;59438;45.014;39.006;2023-04-29T06:17:25;100808.88;;;15.08;67.01
71643;BME280;59438;45.014;39.006;2023-04-29T06:19:52;100799.56;;;15.01;67.05
71643;BME280;59438;45.014;39.006;2023-04-29T06:22:18;100796.41;;;14.94;66.79
71643;BME280;59438;45.014;39.006;2023-04-29T06:24:44;100801.25;;;14.86;67.10
71643;BME280;59438;45.014;39.006;2023-04-29T06:27:11;100815.63;;;14.80;67.07
71643;BME280;59438;45.014;39.006;2023-04-29T06:29:37;100823.91;;;14.74;67.27
71643;BME280;59438;45.014;39.006;2023-04-29T06:32:05;100824.16;;;14.69;67.16
71643;BME280;59438;45.014;39.006;2023-04-29T06:34:32;100833.34;;;14.62;67.62
71643;BME280;59438;45.014;39.006;2023-04-29T06:36:58;100839.72;;;14.58;67.59
71643;BME280;59438;45.014;39.006;2023-04-29T06:39:24;100828.19;;;14.42;67.79
71643;BME280;59438;45.014;39.006;2023-04-29T06:41:51;100841.09;;;14.48;68.20
71643;BME280;59438;45.014;39.006;2023-04-29T06:44:17;100836.06;;;14.43;68.00
71643;BME280;59438;45.014;39.006;2023-04-29T06:46:44;100844.19;;;14.39;68.01
71643;BME280;59438;45.014;39.006;2023-04-29T06:49:11;100837.34;;;14.35;68.15
71643;BME280;59438;45.014;39.006;2023-04-29T06:51:38;100848.88;;;14.34;68.29
71643;BME280;59438;45.014;39.006;2023-04-29T06:54:04;100838.53;;;14.29;68.06
71643;BME280;59438;45.014;39.006;2023-04-29T06:56:31;100830.50;;;14.30;68.18
71643;BME280;59438;45.014;39.006;2023-04-29T06:58:57;100833.16;;;14.30;68.22
71643;BME280;59438;45.014;39.006;2023-04-29T07:01:23;100833.88;;;14.34;68.75
71643;BME280;59438;45.014;39.006;2023-04-29T07:03:50;100829.28;;;14.38;68.52
71643;BME280;59438;45.014;39.006;2023-04-29T07:06:18;100828.03;;;14.45;68.78
71643;BME280;59438;45.014;39.006;2023-04-29T07:08:44;100823.28;;;14.51;68.47
71643;BME280;59438;45.014;39.006;2023-04-29T07:11:10;100836.00;;;14.62;68.71
71643;BME280;59438;45.014;39.006;2023-04-29T07:13:37;100827.63;;;14.70;68.60
71643;BME280;59438;45.014;39.006;2023-04-29T07:16:03;100831.69;;;14.77;68.45
71643;BME280;59438;45.014;39.006;2023-04-29T07:18:30;100821.63;;;14.84;68.26
71643;BME280;59438;45.014;39.006;2023-04-29T07:21:00;100832.91;;;14.87;68.70
71643;BME280;59438;45.014;39.006;2023-04-29T07:23:27;100845.03;;;14.91;68.23
71643;BME280;59438;45.014;39.006;2023-04-29T07:25:54;100849.56;;;14.89;68.11
71643;BME280;59438;45.014;39.006;2023-04-29T07:28:20;100838.91;;;14.74;68.55
71643;BME280;59438;45.014;39.006;2023-04-29T07:30:46;100858.13;;;14.77;68.38
71643;BME280;59438;45.014;39.006;2023-04-29T07:33:13;100863.81;;;14.69;68.27
71643;BME280;59438;45.014;39.006;2023-04-29T07:35:39;100865.06;;;14.62;68.57
71643;BME280;59438;45.014;39.006;2023-04-29T07:38:06;100870.94;;;14.50;68.54
71643;BME280;59438;45.014;39.006;2023-04-29T07:40:34;100876.38;;;14.47;69.97
71643;BME280;59438;45.014;39.006;2023-04-29T07:43:00;100881.97;;;14.41;69.73
71643;BME280;59438;45.014;39.006;2023-04-29T07:45:26;100884.00;;;14.36;69.72
71643;BME280;59438;45.014;39.006;2023-04-29T07:47:53;100868.44;;;14.29;70.04
71643;BME280;59438;45.014;39.006;2023-04-29T07:50:19;100861.63;;;14.25;70.60
71643;BME280;59438;45.014;39.006;2023-04-29T07:52:46;100858.31;;;14.20;70.29
71643;BME280;59438;45.014;39.006;2023-04-29T07:55:12;100853.28;;;14.16;70.54
71643;BME280;59438;45.014;39.006;2023-04-29T07:57:40;100836.66;;;14.14;71.62
71643;BME280;59438;45.014;39.006;2023-04-29T08:00:07;100821.81;;;14.11;71.03
71643;BME280;59438;45.014;39.006;2023-04-29T08:02:34;100827.09;;;14.11;71.11
71643;BME280;59438;45.014;39.006;2023-04-29T08:05:00;100821.03;;;14.09;71.50
71643;BME280;59438;45.014;39.006;2023-04-29T08:07:27;100825.53;;;14.07;71.26
71643;BME280;59438;45.014;39.006;2023-04-29T08:09:54;100822.13;;;14.05;71.98
71643;BME280;59438;45.014;39.006;2023-04-29T08:12:20;100819.63;;;14.02;72.11
71643;BME280;59438;45.014;39.006;2023-04-29T08:14:48;100813.72;;;13.97;72.52
71643;BME280;59438;45.014;39.006;2023-04-29T08:17:15;100811.94;;;13.97;72.02
71643;BME280;59438;45.014;39.006;2023-04-29T08:19:41;100811.16;;;13.95;72.02
71643;BME280;59438;45.014;39.006;2023-04-29T08:22:08;100803.59;;;13.87;72.05
71643;BME280;59438;45.014;39.006;2023-04-29T08:24:34;100814.81;;;13.93;72.24
71643;BME280;59438;45.014;39.006;2023-04-29T08:27:02;100819.31;;;13.90;72.22
71643;BME280;59438;45.014;39.006;2023-04-29T08:29:30;100817.50;;;13.91;73.11
71643;BME280;59438;45.014;39.006;2023-04-29T08:31:58;100821.09;;;13.90;73.07
71643;BME280;59438;45.014;39.006;2023-04-29T08:34:24;100828.13;;;13.89;72.80
71643;BME280;59438;45.014;39.006;2023-04-29T08:36:50;100827.38;;;13.87;72.71
71643;BME280;59438;45.014;39.006;2023-04-29T08:39:17;100828.31;;;13.86;72.80
71643;BME280;59438;45.014;39.006;2023-04-29T08:41:43;100827.59;;;13.83;73.06
71643;BME280;59438;45.014;39.006;2023-04-29T08:44:10;100816.31;;;13.79;72.99
71643;BME280;59438;45.014;39.006;2023-04-29T08:46:37;100819.75;;;13.81;73.32
71643;BME280;59438;45.014;39.006;2023-04-29T08:49:06;100814.47;;;13.81;73.44
71643;BME280;59438;45.014;39.006;2023-04-29T08:51:32;100806.63;;;13.80;73.17
71643;BME280;59438;45.014;39.006;2023-04-29T08:53:59;100821.59;;;13.79;73.29
71643;BME280;59438;45.014;39.006;2023-04-29T08:56:25;100820.81;;;13.77;73.15
71643;BME280;59438;45.014;39.006;2023-04-29T08:58:52;100811.34;;;13.73;73.26
71643;BME280;59438;45.014;39.006;2023-04-29T09:01:20;100813.97;;;13.73;73.34
71643;BME280;59438;45.014;39.006;2023-04-29T09:03:49;100807.91;;;13.71;73.84
71643;BME280;59438;45.014;39.006;2023-04-29T09:06:20;100805.38;;;13.69;73.80
71643;BME280;59438;45.014;39.006;2023-04-29T09:08:47;100808.09;;;13.68;73.68
71643;BME280;59438;45.014;39.006;2023-04-29T09:11:14;100805.44;;;13.68;73.82
71643;BME280;59438;45.014;39.006;2023-04-29T09:13:41;100795.78;;;13.67;74.00
71643;BME280;59438;45.014;39.006;2023-04-29T09:16:10;100787.09;;;13.65;74.83
71643;BME280;59438;45.014;39.006;2023-04-29T09:18:44;100788.09;;;13.62;74.94
71643;BME280;59438;45.014;39.006;2023-04-29T09:21:20;100809.47;;;13.75;75.13
71643;BME280;59438;45.014;39.006;2023-04-29T09:23:50;100813.00;;;13.76;74.35
71643;BME280;59438;45.014;39.006;2023-04-29T09:26:17;100820.03;;;13.75;73.92
71643;BME280;59438;45.014;39.006;2023-04-29T09:28:43;100819.19;;;13.75;74.01
71643;BME280;59438;45.014;39.006;2023-04-29T09:31:10;100827.34;;;13.70;74.56
71643;BME280;59438;45.014;39.006;2023-04-29T09:33:49;100810.84;;;13.65;75.71
71643;BME280;59438;45.014;39.006;2023-04-29T09:36:34;100832.31;;;13.76;75.53
